createdAt,value
2018-12-23T00:02:13.030Z,8.50
2018-12-23T00:04:39.739Z,8.13
2018-12-23T00:07:06.504Z,8.25
2018-12-23T00:09:33.225Z,8.63
2018-12-23T00:11:59.946Z,8.10
2018-12-23T00:14:26.692Z,8.20
2018-12-23T00:16:53.459Z,7.53
2018-12-23T00:19:20.249Z,8.08
2018-12-23T00:21:47.045Z,7.42
2018-12-23T00:24:13.875Z,7.92
2018-12-23T00:26:40.577Z,7.22
2018-12-23T00:29:07.347Z,7.15
2018-12-23T00:31:34.053Z,7.35
2018-12-23T00:34:00.766Z,7.15
2018-12-23T00:36:27.532Z,7.72
2018-12-23T00:38:54.309Z,6.83
2018-12-23T00:41:21.040Z,6.80
2018-12-23T00:43:47.767Z,6.92
2018-12-23T00:46:14.496Z,6.65
2018-12-23T00:48:41.318Z,6.83
2018-12-23T00:51:08.132Z,6.70
2018-12-23T00:53:34.862Z,6.10
2018-12-23T00:56:01.670Z,6.33
2018-12-23T00:58:28.412Z,5.72
2018-12-23T01:00:55.137Z,6.08
2018-12-23T01:03:21.839Z,5.83
2018-12-23T01:05:48.584Z,6.12
2018-12-23T01:08:15.353Z,6.70
2018-12-23T01:10:42.105Z,6.53
2018-12-23T01:13:08.858Z,5.92
2018-12-23T01:15:35.564Z,5.30
2018-12-23T01:18:02.280Z,6.12
2018-12-23T01:20:29.006Z,5.87
2018-12-23T01:22:55.712Z,5.85
2018-12-23T01:25:22.448Z,6.10
2018-12-23T01:27:49.153Z,5.85
2018-12-23T01:30:15.865Z,6.03
2018-12-23T01:32:42.592Z,6.00
2018-12-23T01:35:09.297Z,5.72
2018-12-23T01:37:36.079Z,5.45
2018-12-23T01:40:02.845Z,5.83
2018-12-23T01:42:29.591Z,5.30
2018-12-23T01:44:56.310Z,6.15
2018-12-23T01:47:23.017Z,6.28
2018-12-23T01:49:49.751Z,6.35
2018-12-23T01:52:16.461Z,5.78
2018-12-23T01:54:43.188Z,5.50
2018-12-23T01:57:09.909Z,5.65
2018-12-23T01:59:36.651Z,5.80
2018-12-23T02:02:03.356Z,5.58
2018-12-23T02:04:30.096Z,4.67
2018-12-23T02:06:56.904Z,5.65
2018-12-23T02:09:23.612Z,5.50
2018-12-23T02:11:50.316Z,5.40
2018-12-23T02:14:17.104Z,5.40
2018-12-23T02:16:43.804Z,6.08
2018-12-23T02:19:10.538Z,5.75
2018-12-23T02:21:37.236Z,6.30
2018-12-23T02:24:03.966Z,6.47
2018-12-23T02:26:30.675Z,5.50
2018-12-23T02:28:57.622Z,5.78
2018-12-23T02:31:24.335Z,5.70
2018-12-23T02:33:51.051Z,5.30
2018-12-23T02:36:17.782Z,5.30
2018-12-23T02:38:44.511Z,6.28
2018-12-23T02:41:11.230Z,4.85
2018-12-23T02:43:37.980Z,5.10
2018-12-23T02:46:04.683Z,5.50
2018-12-23T02:48:31.384Z,5.50
2018-12-23T02:50:58.113Z,5.90
2018-12-23T02:53:24.846Z,6.03
2018-12-23T02:55:51.593Z,6.03
2018-12-23T02:58:18.298Z,7.15
2018-12-23T03:00:45.555Z,6.67
2018-12-23T03:03:12.335Z,7.30
2018-12-23T03:05:39.042Z,6.95
2018-12-23T03:08:05.767Z,7.15
2018-12-23T03:10:32.478Z,8.33
2018-12-23T03:12:59.209Z,8.30
2018-12-23T03:15:25.923Z,9.23
2018-12-23T03:17:52.728Z,8.68
2018-12-23T03:20:19.698Z,9.53
2018-12-23T03:22:46.402Z,8.08
2018-12-23T03:25:13.205Z,8.70
2018-12-23T03:27:39.921Z,8.90
2018-12-23T03:30:06.698Z,9.60
2018-12-23T03:32:33.496Z,9.33
2018-12-23T03:35:00.435Z,9.60
2018-12-23T03:37:27.281Z,9.45
2018-12-23T03:39:53.999Z,10.10
2018-12-23T03:42:20.727Z,10.65
2018-12-23T03:44:47.431Z,9.40
2018-12-23T03:47:14.161Z,9.98
2018-12-23T03:49:40.884Z,9.73
2018-12-23T03:52:07.662Z,10.25
2018-12-23T03:54:34.497Z,10.45
2018-12-23T03:57:01.225Z,9.43
2018-12-23T03:59:27.959Z,9.95
2018-12-23T04:01:54.751Z,9.40
2018-12-23T04:04:21.468Z,10.75
2018-12-23T04:06:48.190Z,10.13
2018-12-23T04:09:15.065Z,9.70
2018-12-23T04:11:41.773Z,9.40
2018-12-23T04:14:08.506Z,10.35
2018-12-23T04:16:35.221Z,10.40
2018-12-23T04:19:02.001Z,10.80
2018-12-23T04:21:28.713Z,11.22
2018-12-23T04:23:55.433Z,11.20
2018-12-23T04:26:23.126Z,10.93
2018-12-23T04:28:49.886Z,10.68
2018-12-23T04:31:16.607Z,10.95
2018-12-23T04:33:43.345Z,11.05
2018-12-23T04:36:10.088Z,11.12
2018-12-23T04:38:36.825Z,11.22
2018-12-23T04:41:03.603Z,12.98
2018-12-23T04:43:30.336Z,11.10
2018-12-23T04:45:57.068Z,11.85
2018-12-23T04:48:23.800Z,11.90
2018-12-23T04:50:50.528Z,11.73
2018-12-23T04:53:17.255Z,11.97
2018-12-23T04:55:44.008Z,10.98
2018-12-23T04:58:10.727Z,10.72
2018-12-23T05:00:37.464Z,10.40
2018-12-23T05:03:04.221Z,10.00
2018-12-23T05:05:30.938Z,9.75
2018-12-23T05:07:57.659Z,9.70
2018-12-23T05:10:24.414Z,10.75
2018-12-23T05:12:51.139Z,10.23
2018-12-23T05:15:17.858Z,10.30
2018-12-23T05:17:44.594Z,9.95
2018-12-23T05:20:11.312Z,10.85
2018-12-23T05:22:38.051Z,11.15
2018-12-23T05:25:04.786Z,11.93
2018-12-23T05:27:31.524Z,13.40
2018-12-23T05:29:58.261Z,11.63
2018-12-23T05:32:24.992Z,12.50
2018-12-23T05:34:51.727Z,13.38
2018-12-23T05:37:18.455Z,12.50
2018-12-23T05:39:45.171Z,12.30
2018-12-23T05:42:11.915Z,12.50
2018-12-23T05:44:38.648Z,13.55
2018-12-23T05:47:05.369Z,12.25
2018-12-23T05:49:32.096Z,13.62
2018-12-23T05:51:58.808Z,13.50
2018-12-23T05:54:25.548Z,13.22
2018-12-23T05:56:52.265Z,13.40
2018-12-23T05:59:19.018Z,13.28
2018-12-23T06:01:45.736Z,13.43
2018-12-23T06:04:12.455Z,14.50
2018-12-23T06:06:39.188Z,12.85
2018-12-23T06:09:05.974Z,12.78
2018-12-23T06:11:33.413Z,13.35
2018-12-23T06:14:00.292Z,12.60
2018-12-23T06:16:27.109Z,11.65
2018-12-23T06:18:53.894Z,21.42
2018-12-23T06:21:20.658Z,15.40
2018-12-23T06:23:47.385Z,13.70
2018-12-23T06:26:14.221Z,12.35
2018-12-23T06:28:40.957Z,12.40
2018-12-23T06:31:07.692Z,11.10
2018-12-23T06:33:34.475Z,10.82
2018-12-23T06:36:01.255Z,12.53
2018-12-23T06:38:28.084Z,10.85
2018-12-23T06:40:54.901Z,9.20
2018-12-23T06:43:21.775Z,9.65
2018-12-23T06:45:48.589Z,9.25
2018-12-23T06:48:15.340Z,10.00
2018-12-23T06:50:42.059Z,10.58
2018-12-23T06:53:08.823Z,9.40
2018-12-23T06:55:35.631Z,9.43
2018-12-23T06:58:02.395Z,9.28
2018-12-23T07:00:29.116Z,11.57
2018-12-23T07:02:55.905Z,10.80
2018-12-23T07:05:22.647Z,11.93
2018-12-23T07:07:49.430Z,12.90
2018-12-23T07:10:16.180Z,15.75
2018-12-23T07:12:42.936Z,16.57
2018-12-23T07:15:09.684Z,15.70
2018-12-23T07:17:36.476Z,13.55
2018-12-23T07:20:03.830Z,11.43
2018-12-23T07:22:30.622Z,12.15
2018-12-23T07:24:57.391Z,12.75
2018-12-23T07:27:24.235Z,13.60
2018-12-23T07:29:50.961Z,13.62
2018-12-23T07:32:17.744Z,13.25
2018-12-23T07:34:44.482Z,13.20
2018-12-23T07:37:11.259Z,12.73
2018-12-23T07:39:38.055Z,12.95
2018-12-23T07:42:04.778Z,14.58
2018-12-23T07:44:31.722Z,14.55
2018-12-23T07:46:58.674Z,14.03
2018-12-23T07:49:25.426Z,14.03
2018-12-23T07:51:52.164Z,14.70
2018-12-23T07:54:18.982Z,14.60
2018-12-23T07:56:45.756Z,15.13
2018-12-23T08:00:05.530Z,16.30
2018-12-23T08:02:33.082Z,15.80
2018-12-23T08:05:00.610Z,15.18
2018-12-23T08:10:02.926Z,16.52
2018-12-23T08:12:30.605Z,15.15
2018-12-23T08:14:58.183Z,15.30
2018-12-23T08:17:25.802Z,16.97
2018-12-23T08:19:53.330Z,14.55
2018-12-23T08:22:20.878Z,16.02
2018-12-23T08:24:48.456Z,16.82
2018-12-23T08:27:16.384Z,16.82
2018-12-23T08:29:43.930Z,17.77
2018-12-23T08:32:11.481Z,16.50
2018-12-23T08:34:39.082Z,16.70
2018-12-23T08:37:06.639Z,15.80
2018-12-23T08:39:34.293Z,16.27
2018-12-23T08:42:01.824Z,17.35
2018-12-23T08:44:29.364Z,15.83
2018-12-23T08:46:56.894Z,16.75
2018-12-23T08:49:24.431Z,16.48
2018-12-23T08:54:24.803Z,17.35
2018-12-23T08:59:25.860Z,16.42
2018-12-23T12:02:56.902Z,14.25
2018-12-23T12:05:24.426Z,15.38
2018-12-23T12:07:51.946Z,15.08
2018-12-23T12:10:19.501Z,16.10
2018-12-23T12:12:47.015Z,15.25
2018-12-23T12:18:03.226Z,16.35
2018-12-23T12:20:30.735Z,15.23
2018-12-23T12:22:58.248Z,15.20
2018-12-23T12:25:25.812Z,16.60
2018-12-23T12:27:53.327Z,15.08
2018-12-23T12:30:20.862Z,16.87
2018-12-23T12:32:48.430Z,15.83
2018-12-23T12:35:15.948Z,15.98
2018-12-23T12:37:43.471Z,15.88
2018-12-23T12:40:11.043Z,17.07
2018-12-23T12:42:38.570Z,16.75
2018-12-23T12:45:06.166Z,15.30
2018-12-23T12:47:33.702Z,17.10
2018-12-23T12:50:01.222Z,16.30
2018-12-23T12:52:28.764Z,18.75
2018-12-23T12:54:56.288Z,17.73
2018-12-23T12:57:23.858Z,16.77
2018-12-23T12:59:51.373Z,17.37
2018-12-23T13:02:18.901Z,20.50
2018-12-23T13:04:46.447Z,17.42
2018-12-23T13:07:14.002Z,17.90
2018-12-23T13:09:41.531Z,18.05
2018-12-23T13:12:09.048Z,19.65
2018-12-23T13:14:36.613Z,16.90
2018-12-23T13:17:04.133Z,19.87
2018-12-23T13:19:31.651Z,16.07
2018-12-23T13:21:59.183Z,16.75
2018-12-23T13:24:26.702Z,17.75
2018-12-23T13:26:54.250Z,16.52
2018-12-23T13:29:21.802Z,18.65
2018-12-23T13:31:49.324Z,19.32
2018-12-23T13:34:16.835Z,18.42
2018-12-23T13:36:44.386Z,18.70
2018-12-23T13:39:11.923Z,19.12
2018-12-23T13:45:06.107Z,16.87
2018-12-23T13:47:52.991Z,17.57
2018-12-23T13:50:40.019Z,17.50
2018-12-23T13:53:26.878Z,19.55
2018-12-23T13:56:13.880Z,19.07
2018-12-23T13:59:00.740Z,19.17
2018-12-23T14:04:41.682Z,17.70
2018-12-23T14:07:28.545Z,18.70
2018-12-23T14:12:49.923Z,18.37
2018-12-23T14:15:17.471Z,18.82
2018-12-23T14:17:44.995Z,20.17
2018-12-23T14:20:12.556Z,17.77
2018-12-23T14:22:40.080Z,19.50
2018-12-23T14:25:07.605Z,18.20
2018-12-23T14:27:35.141Z,17.25
2018-12-23T14:30:02.655Z,18.62
2018-12-23T14:32:30.202Z,18.17
2018-12-23T14:34:57.722Z,19.02
2018-12-23T14:37:25.239Z,19.20
2018-12-23T14:39:52.783Z,17.65
2018-12-23T14:42:20.472Z,18.87
2018-12-23T14:44:47.991Z,18.07
2018-12-23T14:47:15.541Z,18.80
2018-12-23T14:49:43.070Z,17.80
2018-12-23T14:52:10.617Z,17.70
2018-12-23T14:54:58.056Z,18.20
2018-12-23T15:05:43.283Z,17.48
2018-12-23T15:11:04.891Z,15.35
2018-12-23T15:13:32.421Z,15.58
2018-12-23T15:21:27.057Z,14.90
2018-12-23T15:23:55.131Z,15.00
2018-12-23T15:26:37.802Z,16.57
2018-12-23T15:29:12.815Z,15.80
2018-12-23T15:31:59.720Z,17.75
2018-12-23T15:34:27.631Z,14.65
2018-12-23T15:39:58.719Z,16.37
2018-12-23T15:42:13.999Z,14.53
2018-12-23T15:47:54.557Z,14.87
2018-12-23T15:50:06.458Z,16.02
2018-12-23T15:52:33.978Z,14.05
2018-12-23T15:55:01.509Z,16.25
2018-12-23T15:57:29.087Z,15.98
2018-12-23T15:59:56.605Z,15.13
2018-12-23T16:02:24.151Z,17.42
2018-12-23T16:04:51.679Z,18.27
2018-12-23T16:07:19.229Z,17.65
2018-12-23T16:09:51.133Z,18.45
2018-12-23T16:12:15.945Z,16.75
2018-12-23T16:14:43.491Z,17.52
2018-12-23T16:17:11.153Z,18.07
2018-12-23T16:19:38.689Z,16.00
2018-12-23T16:22:06.213Z,16.48
2018-12-23T16:24:33.727Z,17.50
2018-12-23T16:27:01.301Z,16.75
2018-12-23T16:29:28.843Z,19.07
2018-12-23T16:31:56.361Z,19.67
2018-12-23T16:34:23.914Z,16.48
2018-12-23T16:36:51.441Z,16.87
2018-12-23T16:39:18.992Z,17.85
2018-12-23T16:44:54.005Z,16.75
2018-12-23T16:47:21.520Z,17.17
2018-12-23T16:49:49.088Z,16.93
2018-12-23T16:52:16.698Z,16.57
2018-12-23T16:54:44.230Z,17.12
2018-12-23T16:57:11.820Z,18.50
2018-12-23T16:59:39.346Z,18.65
2018-12-23T17:02:06.902Z,16.95
2018-12-23T17:04:34.441Z,17.75
2018-12-23T17:07:01.988Z,17.57
2018-12-23T17:09:29.685Z,17.85
2018-12-23T17:11:57.216Z,16.12
2018-12-23T17:14:25.278Z,17.25
2018-12-23T17:16:53.493Z,17.27
2018-12-23T17:19:21.395Z,17.90
2018-12-23T17:22:08.511Z,17.00
2018-12-23T17:24:36.052Z,15.28
2018-12-23T17:27:03.650Z,15.95
2018-12-23T17:29:31.198Z,15.95
2018-12-23T17:31:58.748Z,16.70
2018-12-23T17:34:26.313Z,17.00
2018-12-23T17:36:53.856Z,16.32
2018-12-23T17:39:35.126Z,15.35
2018-12-23T17:41:50.624Z,15.35
2018-12-23T17:44:19.094Z,14.15
2018-12-23T17:46:47.349Z,15.75
2018-12-23T17:49:15.218Z,15.90
2018-12-23T17:51:42.990Z,15.95
2018-12-23T17:54:10.579Z,17.87
2018-12-23T17:56:58.948Z,15.63
2018-12-23T18:04:33.681Z,16.80
2018-12-23T18:10:07.963Z,16.52
2018-12-23T18:12:36.302Z,16.25
2018-12-23T18:15:27.072Z,18.87
2018-12-23T18:17:55.053Z,18.82
2018-12-23T18:20:22.574Z,18.32
2018-12-23T18:22:50.116Z,17.52
2018-12-23T18:25:17.682Z,18.17
2018-12-23T18:27:45.201Z,17.90
2018-12-23T18:30:13.122Z,19.05
2018-12-23T18:32:40.684Z,18.25
2018-12-23T18:35:08.239Z,18.87
2018-12-23T18:37:35.778Z,17.17
2018-12-23T18:40:04.640Z,17.05
2018-12-23T18:42:32.346Z,18.20
2018-12-23T18:45:00.458Z,18.35
2018-12-23T18:47:28.038Z,18.65
2018-12-23T18:49:55.751Z,19.48
2018-12-23T18:52:23.327Z,19.62
2018-12-23T18:55:25.125Z,19.15
2018-12-23T18:57:40.646Z,17.85
2018-12-23T19:03:02.101Z,17.05
2018-12-23T19:05:43.576Z,18.37
2018-12-23T19:11:11.152Z,22.02
2018-12-23T19:13:58.344Z,21.17
2018-12-23T19:22:46.276Z,19.05
2018-12-23T19:28:31.059Z,16.30
2018-12-23T19:34:33.716Z,14.87
2018-12-23T19:37:14.814Z,11.20
2018-12-23T19:40:02.435Z,7.78
2018-12-23T19:45:55.694Z,7.75
2018-12-23T19:48:42.560Z,12.47
2018-12-23T19:57:16.446Z,8.00
2018-12-23T20:08:45.524Z,11.35
2018-12-23T20:11:32.400Z,13.18
2018-12-23T20:14:19.506Z,14.35
2018-12-23T20:20:13.657Z,10.32
2018-12-23T20:32:05.814Z,8.43
2018-12-23T20:37:51.042Z,9.35
2018-12-23T20:40:38.301Z,12.93
2018-12-23T20:44:03.986Z,8.75
2018-12-23T20:49:10.455Z,5.80
2018-12-23T20:51:58.366Z,5.58
2018-12-23T21:04:07.736Z,4.60
2018-12-23T21:06:42.140Z,5.87
2018-12-23T21:12:36.383Z,6.10
2018-12-23T21:15:11.106Z,6.40
2018-12-23T21:23:44.447Z,6.83
2018-12-23T21:26:31.392Z,6.37
2018-12-23T21:29:19.146Z,5.60
2018-12-23T21:32:07.950Z,7.00
2018-12-23T21:37:47.586Z,6.53
2018-12-23T21:40:34.481Z,6.42
2018-12-23T21:43:21.342Z,7.30
2018-12-23T21:52:21.840Z,7.78
2018-12-23T21:55:09.548Z,9.03
2018-12-23T21:57:57.290Z,7.25
2018-12-23T22:03:39.016Z,8.68
2018-12-23T22:06:27.195Z,9.18
2018-12-23T22:09:16.601Z,9.43
2018-12-23T22:12:04.504Z,9.83
2018-12-23T22:14:33.223Z,9.60
2018-12-23T22:17:36.193Z,9.33
2018-12-23T22:19:51.339Z,10.30
2018-12-23T22:22:18.865Z,10.78
2018-12-23T22:24:46.373Z,9.50
2018-12-23T22:27:13.913Z,10.25
2018-12-23T22:29:41.461Z,10.45
2018-12-23T22:32:08.973Z,9.90
2018-12-23T22:34:36.486Z,9.68
2018-12-23T22:37:04.006Z,9.45
2018-12-23T22:39:31.547Z,9.30
2018-12-23T22:41:59.073Z,8.48
2018-12-23T22:44:26.574Z,7.20
2018-12-23T22:46:54.095Z,7.45
2018-12-23T22:49:21.629Z,7.65
2018-12-23T22:51:49.158Z,8.13
2018-12-23T22:54:16.693Z,8.45
2018-12-23T22:56:44.226Z,6.95
2018-12-23T22:59:11.744Z,7.62
2018-12-23T23:01:40.261Z,9.30
2018-12-23T23:04:08.538Z,9.10
2018-12-23T23:06:36.071Z,8.25
2018-12-23T23:11:57.711Z,8.40
2018-12-23T23:14:25.227Z,8.80
2018-12-23T23:16:52.736Z,8.20
2018-12-23T23:19:20.294Z,7.70
2018-12-23T23:21:47.806Z,7.70
2018-12-23T23:24:15.310Z,7.20
2018-12-23T23:26:42.858Z,7.65
2018-12-23T23:29:10.391Z,6.17
2018-12-23T23:31:37.907Z,5.85
2018-12-23T23:34:05.480Z,6.92
2018-12-23T23:36:32.983Z,7.25
2018-12-23T23:39:00.496Z,6.83
2018-12-23T23:41:28.021Z,7.70
2018-12-23T23:43:55.538Z,7.40
2018-12-23T23:46:23.089Z,7.70
2018-12-23T23:48:50.597Z,7.08
2018-12-23T23:51:18.111Z,6.70
2018-12-23T23:53:45.647Z,6.80
2018-12-23T23:56:13.179Z,7.10
2018-12-23T23:58:40.728Z,7.83
